Time;durP1;ratioP1;P1;durP2;ratioP2;P2;SDS_P1;SDS_P2;PMS_P1;PMS_P2;Temp;Humidity;BMP_temperature;BMP_pressure;BME280_temperature;BME280_humidity;BME280_pressure;Samples;Min_cycle;Max_cycle;Signal;HPM_P1;HPM_P2
2021/09/18 00:02:18;;;;;;;18.30;15.40;;;15.40;99.90;;;;;;5010976;28;20121;-73
2021/09/18 00:04:44;;;;;;;18.25;15.48;;;15.40;99.90;;;;;;5004654;28;20030;-74
2021/09/18 00:07:10;;;;;;;18.45;16.27;;;15.40;99.90;;;;;;5001282;28;20053;-74
2021/09/18 00:09:36;;;;;;;18.33;14.95;;;15.40;99.90;;;;;;5001352;28;20026;-74
2021/09/18 00:12:01;;;;;;;18.35;15.48;;;15.40;99.90;;;;;;5007877;28;20058;-74
2021/09/18 00:14:27;;;;;;;18.48;15.63;;;15.40;99.90;;;;;;5014441;28;20022;-74
2021/09/18 00:16:53;;;;;;;16.98;15.18;;;15.40;99.90;;;;;;5002693;28;20081;-74
2021/09/18 00:19:19;;;;;;;17.42;14.93;;;15.40;99.90;;;;;;5003513;28;20022;-74
2021/09/18 00:21:44;;;;;;;20.45;15.25;;;15.40;99.90;;;;;;4993072;28;20042;-74
2021/09/18 00:24:10;;;;;;;17.05;15.25;;;15.40;99.90;;;;;;4997133;28;20041;-74
2021/09/18 00:26:37;;;;;;;18.25;14.75;;;15.40;99.90;;;;;;5006280;28;20034;-74
2021/09/18 00:29:04;;;;;;;20.83;16.25;;;15.30;99.90;;;;;;4998391;28;20031;-74
2021/09/18 00:31:30;;;;;;;20.27;16.40;;;15.30;99.90;;;;;;5009236;28;20380;-74
2021/09/18 00:33:56;;;;;;;18.85;15.82;;;15.30;99.90;;;;;;5002500;28;20387;-73
2021/09/18 00:36:21;;;;;;;19.50;16.92;;;15.30;99.90;;;;;;4997268;28;20035;-73
2021/09/18 00:38:47;;;;;;;23.23;17.40;;;15.30;99.90;;;;;;4999015;28;20118;-73
2021/09/18 00:41:13;;;;;;;18.45;15.95;;;15.40;99.90;;;;;;5004210;28;20534;-73
2021/09/18 00:43:39;;;;;;;20.83;17.45;;;15.30;99.90;;;;;;4997260;28;20045;-73
2021/09/18 00:46:05;;;;;;;22.00;17.02;;;15.30;99.90;;;;;;5004048;28;20125;-73
2021/09/18 00:48:31;;;;;;;22.48;17.40;;;15.30;99.90;;;;;;5004858;28;20105;-74
2021/09/18 00:50:57;;;;;;;22.92;18.10;;;15.30;99.90;;;;;;5003591;28;20484;-73
2021/09/18 00:53:23;;;;;;;21.98;18.70;;;15.30;99.90;;;;;;4995606;28;20034;-73
2021/09/18 00:55:49;;;;;;;23.40;19.05;;;15.30;99.90;;;;;;4997493;28;20120;-74
2021/09/18 00:58:15;;;;;;;23.83;19.00;;;15.30;99.90;;;;;;4992537;28;20118;-73
2021/09/18 01:00:41;;;;;;;23.52;18.50;;;15.30;99.90;;;;;;4996283;28;20033;-73
2021/09/18 01:03:07;;;;;;;21.92;18.27;;;15.20;99.90;;;;;;4996939;28;20034;-73
2021/09/18 01:05:34;;;;;;;22.27;19.10;;;15.30;99.90;;;;;;5001384;28;20071;-73
2021/09/18 01:08:00;;;;;;;25.05;19.10;;;15.30;99.90;;;;;;4998290;28;20609;-74
2021/09/18 01:10:27;;;;;;;26.38;18.95;;;15.20;99.90;;;;;;5004748;28;20036;-73
2021/09/18 01:13:00;;;;;;;23.30;18.92;;;15.30;99.90;;;;;;5002602;28;20030;-73
2021/09/18 01:15:30;;;;;;;25.52;18.58;;;15.20;99.90;;;;;;4993721;28;20035;-73
2021/09/18 01:17:56;;;;;;;;;;;15.30;99.90;;;;;;5000892;28;20553;-74
2021/09/18 01:20:27;;;;;;;23.48;17.75;;;15.30;99.90;;;;;;4991670;28;20421;-74
2021/09/18 01:22:56;;;;;;;26.50;19.55;;;15.30;99.90;;;;;;5007607;28;20559;-73
2021/09/18 01:25:22;;;;;;;22.45;19.05;;;15.20;99.90;;;;;;5002426;28;20030;-73
2021/09/18 01:27:48;;;;;;;24.38;20.67;;;15.30;99.90;;;;;;4992190;28;20032;-73
2021/09/18 01:30:23;;;;;;;23.60;19.55;;;15.20;99.90;;;;;;4993471;28;20096;-74
2021/09/18 01:32:50;;;;;;;26.25;19.30;;;15.30;99.90;;;;;;4990741;28;20067;-73
2021/09/18 01:35:16;;;;;;;25.73;20.35;;;15.30;99.90;;;;;;5000983;28;20030;-74
2021/09/18 01:37:46;;;;;;;25.65;19.83;;;15.20;99.90;;;;;;4999405;28;20368;-74
2021/09/18 01:40:27;;;;;;;24.75;19.60;;;15.20;99.90;;;;;;4995156;28;20069;-73
2021/09/18 01:42:53;;;;;;;29.48;21.02;;;15.20;99.90;;;;;;4990666;28;20069;-74
2021/09/18 01:45:19;;;;;;;26.67;20.50;;;15.20;99.90;;;;;;4995535;28;20036;-74
2021/09/18 01:47:56;;;;;;;26.23;20.35;;;15.20;99.90;;;;;;4996473;28;20041;-73
2021/09/18 01:50:30;;;;;;;25.25;21.13;;;15.20;99.90;;;;;;4999944;28;20036;-73
2021/09/18 01:53:04;;;;;;;27.40;21.75;;;15.20;99.90;;;;;;5008130;28;20049;-73
2021/09/18 01:55:31;;;;;;;26.10;21.08;;;15.20;99.90;;;;;;4998295;28;20121;-74
2021/09/18 01:57:59;;;;;;;28.33;21.92;;;15.20;99.90;;;;;;5006479;28;20053;-73
2021/09/18 02:00:26;;;;;;;26.85;20.52;;;15.20;99.90;;;;;;5011409;28;20026;-74
2021/09/18 02:02:52;;;;;;;26.00;20.10;;;15.20;99.90;;;;;;5008407;28;20427;-74
2021/09/18 02:05:23;;;;;;;28.55;21.73;;;15.20;99.90;;;;;;5000604;28;20061;-74
2021/09/18 02:07:49;;;;;;;25.38;21.58;;;15.20;99.90;;;;;;5005680;28;20025;-74
2021/09/18 02:10:18;;;;;;;26.20;20.98;;;15.20;99.90;;;;;;5007799;28;20424;-74
2021/09/18 02:12:44;;;;;;;24.47;21.40;;;15.20;99.90;;;;;;5009522;28;20026;-74
2021/09/18 02:15:12;;;;;;;24.55;18.98;;;15.20;99.90;;;;;;5006109;28;20044;-74
2021/09/18 02:17:38;;;;;;;25.13;20.05;;;15.20;99.90;;;;;;5004892;28;20022;-74
2021/09/18 02:20:09;;;;;;;24.95;19.70;;;15.20;99.90;;;;;;4999086;28;20029;-74
2021/09/18 02:22:35;;;;;;;24.08;19.65;;;15.20;99.90;;;;;;5004025;28;20099;-74
2021/09/18 02:25:02;;;;;;;25.20;20.02;;;15.20;99.90;;;;;;5001567;28;20080;-75
2021/09/18 02:27:28;;;;;;;28.60;20.95;;;15.20;99.90;;;;;;5004138;28;20026;-74
2021/09/18 02:29:53;;;;;;;32.38;22.55;;;15.20;99.90;;;;;;5007881;28;20030;-74
2021/09/18 02:32:19;;;;;;;25.80;20.75;;;15.20;99.90;;;;;;5005243;28;20092;-74
2021/09/18 02:34:45;;;;;;;29.20;22.50;;;15.20;99.90;;;;;;5005092;28;20026;-74
2021/09/18 02:37:11;;;;;;;26.35;22.15;;;15.20;99.90;;;;;;5007532;28;20022;-74
2021/09/18 02:39:37;;;;;;;29.45;22.85;;;15.20;99.90;;;;;;5004567;28;20030;-74
2021/09/18 02:42:03;;;;;;;30.92;23.67;;;15.20;99.90;;;;;;5008243;28;20037;-74
2021/09/18 02:44:29;;;;;;;30.67;23.25;;;15.20;99.90;;;;;;5007623;28;20034;-74
2021/09/18 02:46:54;;;;;;;26.48;21.48;;;15.20;99.90;;;;;;5006102;28;20449;-73
2021/09/18 02:49:20;;;;;;;24.17;21.20;;;15.20;99.90;;;;;;5002592;28;20543;-74
2021/09/18 02:51:46;;;;;;;28.52;22.83;;;15.20;99.90;;;;;;5005390;28;20033;-73
2021/09/18 02:54:11;;;;;;;27.10;22.85;;;15.20;99.90;;;;;;5011201;28;20105;-74
2021/09/18 02:56:37;;;;;;;28.08;23.13;;;15.20;99.90;;;;;;5006834;28;20411;-74
2021/09/18 02:59:03;;;;;;;32.58;23.75;;;15.20;99.90;;;;;;5002396;28;20403;-75
2021/09/18 03:01:29;;;;;;;37.03;26.60;;;15.20;99.90;;;;;;5001519;28;20033;-75
2021/09/18 03:03:54;;;;;;;36.13;23.60;;;15.10;99.90;;;;;;5001060;28;20058;-74
2021/09/18 03:06:20;;;;;;;34.90;25.38;;;15.10;99.90;;;;;;4999141;28;20450;-74
2021/09/18 03:08:46;;;;;;;24.50;19.73;;;15.10;99.90;;;;;;5007678;28;20085;-74
2021/09/18 03:11:12;;;;;;;22.48;16.85;;;15.10;99.90;;;;;;5005630;28;20088;-74
2021/09/18 03:13:38;;;;;;;18.38;14.48;;;15.10;99.90;;;;;;5011796;28;20029;-73
2021/09/18 03:16:05;;;;;;;12.40;8.20;;;15.10;99.90;;;;;;5002088;28;20113;-74
2021/09/18 03:18:31;;;;;;;8.82;7.35;;;15.10;99.90;;;;;;5008527;28;20076;-75
2021/09/18 03:20:57;;;;;;;7.40;6.70;;;15.00;99.90;;;;;;5007619;28;20022;-73
2021/09/18 03:23:22;;;;;;;6.45;5.75;;;15.00;99.90;;;;;;5002884;28;20050;-73
2021/09/18 03:25:48;;;;;;;7.88;5.57;;;15.00;99.90;;;;;;5008865;28;20066;-73
2021/09/18 03:28:14;;;;;;;6.80;5.32;;;14.90;99.90;;;;;;5011772;28;20108;-73
2021/09/18 03:30:39;;;;;;;6.35;4.82;;;14.90;99.90;;;;;;5011429;28;20061;-73
2021/09/18 03:33:05;;;;;;;5.13;4.63;;;14.90;99.90;;;;;;4995161;28;20514;-73
2021/09/18 03:35:31;;;;;;;7.97;5.45;;;14.80;99.90;;;;;;5002552;28;20076;-73
2021/09/18 03:37:57;;;;;;;6.93;4.90;;;14.80;99.90;;;;;;4999655;28;20042;-73
2021/09/18 03:40:22;;;;;;;5.95;5.32;;;14.80;99.90;;;;;;5004774;28;20161;-73
2021/09/18 03:42:48;;;;;;;5.05;4.45;;;14.80;99.90;;;;;;5003143;28;20030;-73
2021/09/18 03:45:14;;;;;;;5.80;4.70;;;14.80;99.90;;;;;;5007137;28;20038;-73
2021/09/18 03:47:40;;;;;;;5.78;5.00;;;14.80;99.90;;;;;;5003533;28;20034;-73
2021/09/18 03:50:07;;;;;;;10.73;4.97;;;14.70;99.90;;;;;;5003629;28;20061;-73
2021/09/18 03:52:33;;;;;;;6.07;5.10;;;14.70;99.90;;;;;;5003176;28;20025;-73
2021/09/18 03:54:59;;;;;;;6.78;5.72;;;14.70;99.90;;;;;;4992743;28;20109;-73
2021/09/18 03:57:25;;;;;;;9.05;6.20;;;14.70;99.90;;;;;;5010497;28;20029;-73
2021/09/18 03:59:50;;;;;;;6.72;5.43;;;14.70;99.90;;;;;;5001189;28;20410;-73
2021/09/18 04:02:16;;;;;;;10.98;6.32;;;14.70;99.90;;;;;;5001670;28;20038;-73
2021/09/18 04:04:42;;;;;;;10.05;6.68;;;14.60;99.90;;;;;;4998375;28;20045;-73
2021/09/18 04:07:08;;;;;;;10.95;7.28;;;14.60;99.90;;;;;;5004112;28;20026;-73
2021/09/18 04:09:33;;;;;;;8.43;6.80;;;14.50;99.90;;;;;;5003266;28;20040;-73
2021/09/18 04:11:59;;;;;;;11.43;7.05;;;14.50;99.90;;;;;;5000161;28;20492;-73
2021/09/18 04:14:25;;;;;;;10.45;7.85;;;14.40;99.90;;;;;;5000649;28;20526;-73
2021/09/18 04:16:51;;;;;;;9.68;8.23;;;14.40;99.90;;;;;;5000140;28;20034;-73
2021/09/18 04:19:16;;;;;;;8.77;7.72;;;14.40;99.90;;;;;;5000570;28;20040;-73
2021/09/18 04:21:42;;;;;;;10.88;8.52;;;14.40;99.90;;;;;;5009851;28;20522;-73
2021/09/18 04:24:08;;;;;;;9.32;8.13;;;14.30;99.90;;;;;;5002797;28;20033;-73
2021/09/18 04:26:34;;;;;;;8.57;7.13;;;14.30;99.90;;;;;;4994555;28;20492;-73
2021/09/18 04:29:00;;;;;;;11.90;8.95;;;14.30;99.90;;;;;;4993225;28;20034;-73
2021/09/18 04:31:26;;;;;;;12.63;9.63;;;14.30;99.90;;;;;;4995686;28;20037;-74
2021/09/18 04:33:52;;;;;;;16.60;8.85;;;14.20;99.90;;;;;;5005404;28;20533;-72
2021/09/18 04:36:18;;;;;;;13.55;10.05;;;14.10;99.90;;;;;;5010342;28;20165;-72
2021/09/18 04:38:44;;;;;;;15.60;10.85;;;14.10;99.90;;;;;;5000426;28;20506;-73
2021/09/18 04:41:10;;;;;;;16.20;11.50;;;14.10;99.90;;;;;;4993451;28;20043;-73
2021/09/18 04:43:36;;;;;;;16.02;11.73;;;14.00;99.90;;;;;;5003467;28;20043;-73
2021/09/18 04:46:02;;;;;;;15.93;11.82;;;14.10;99.90;;;;;;4995978;28;20030;-73
2021/09/18 04:48:28;;;;;;;13.75;9.63;;;14.00;99.90;;;;;;4996787;28;20026;-73
2021/09/18 04:50:53;;;;;;;11.18;8.60;;;14.00;99.90;;;;;;5010338;28;20044;-74
2021/09/18 04:53:19;;;;;;;12.65;9.80;;;13.90;99.90;;;;;;5000166;28;20030;-74
2021/09/18 04:55:45;;;;;;;11.13;8.75;;;13.90;99.90;;;;;;4999505;28;20030;-74
2021/09/18 04:58:11;;;;;;;10.90;8.30;;;13.90;99.90;;;;;;4998400;28;20052;-74
2021/09/18 05:00:36;;;;;;;8.73;7.47;;;13.80;99.90;;;;;;4997468;28;20095;-73
2021/09/18 05:03:03;;;;;;;10.77;8.10;;;13.80;99.90;;;;;;4991911;28;20045;-73
2021/09/18 05:05:28;;;;;;;8.30;6.60;;;13.70;99.90;;;;;;4992967;28;20225;-73
2021/09/18 05:07:54;;;;;;;7.95;6.00;;;13.70;99.90;;;;;;4999419;28;20507;-74
2021/09/18 05:10:20;;;;;;;9.45;6.10;;;13.70;99.90;;;;;;5006628;28;20452;-74
2021/09/18 05:12:46;;;;;;;9.63;5.88;;;13.60;99.90;;;;;;5011503;28;20109;-75
2021/09/18 05:15:12;;;;;;;11.40;6.82;;;13.50;99.90;;;;;;5004401;28;20095;-74
2021/09/18 05:17:38;;;;;;;8.95;6.63;;;13.50;99.90;;;;;;4995377;28;20022;-74
2021/09/18 05:20:04;;;;;;;8.77;5.80;;;13.50;99.90;;;;;;4996237;28;20045;-74
2021/09/18 05:22:30;;;;;;;8.90;6.38;;;13.50;99.90;;;;;;4992308;28;20582;-73
2021/09/18 05:24:56;;;;;;;10.02;6.80;;;13.50;99.90;;;;;;5005084;28;20030;-74
2021/09/18 05:27:21;;;;;;;9.55;7.57;;;13.40;99.90;;;;;;4992864;28;20088;-74
2021/09/18 05:29:47;;;;;;;8.85;6.63;;;13.40;99.90;;;;;;4992263;28;20503;-74
2021/09/18 05:32:13;;;;;;;12.13;7.07;;;13.30;99.90;;;;;;4991295;28;20037;-73
2021/09/18 05:34:39;;;;;;;11.35;7.63;;;13.20;99.90;;;;;;4998713;28;20140;-73
2021/09/18 05:37:05;;;;;;;12.32;7.60;;;13.20;99.90;;;;;;5008485;28;20452;-74
2021/09/18 05:39:32;;;;;;;9.00;7.28;;;13.20;99.90;;;;;;5004207;28;20049;-74
2021/09/18 05:41:58;;;;;;;10.18;7.70;;;13.20;99.90;;;;;;4996406;28;20042;-74
2021/09/18 05:44:24;;;;;;;10.10;7.50;;;13.20;99.90;;;;;;4998645;28;20080;-74
2021/09/18 05:46:49;;;;;;;8.10;7.03;;;13.20;99.90;;;;;;4997742;28;20424;-73
2021/09/18 05:49:16;;;;;;;9.35;7.45;;;13.20;99.90;;;;;;4991652;28;20026;-73
2021/09/18 05:51:42;;;;;;;11.00;7.47;;;13.10;99.90;;;;;;5002627;28;20025;-73
2021/09/18 05:54:07;;;;;;;8.57;6.43;;;13.20;99.90;;;;;;4996307;28;20034;-73
2021/09/18 05:56:33;;;;;;;9.48;7.47;;;13.20;99.90;;;;;;4999105;28;20038;-73
2021/09/18 05:59:03;;;;;;;10.30;7.40;;;13.20;99.90;;;;;;4997998;28;20085;-74
2021/09/18 06:01:29;;;;;;;9.27;7.05;;;13.10;99.90;;;;;;4993529;28;20018;-74
2021/09/18 06:03:54;;;;;;;8.52;6.05;;;13.10;99.90;;;;;;5007761;28;20395;-73
2021/09/18 06:06:20;;;;;;;7.05;5.30;;;13.10;99.90;;;;;;5008098;28;20025;-73
2021/09/18 06:08:46;;;;;;;7.25;5.60;;;13.00;99.90;;;;;;4999253;28;20030;-74
2021/09/18 06:11:11;;;;;;;8.13;5.25;;;12.90;99.90;;;;;;5006986;28;20038;-73
2021/09/18 06:13:38;;;;;;;5.30;4.75;;;12.90;99.90;;;;;;5000038;28;20085;-72
2021/09/18 06:16:04;;;;;;;6.68;5.30;;;12.80;99.90;;;;;;5006028;28;20034;-73
2021/09/18 06:18:29;;;;;;;6.03;4.95;;;12.90;99.90;;;;;;4996455;28;20503;-73
2021/09/18 06:20:56;;;;;;;8.98;5.57;;;12.90;99.90;;;;;;5004987;28;20117;-74
2021/09/18 06:23:22;;;;;;;6.07;5.35;;;13.00;99.90;;;;;;4999361;28;20034;-74
2021/09/18 06:25:48;;;;;;;7.63;4.82;;;13.00;99.90;;;;;;5001865;28;20018;-74
2021/09/18 06:28:13;;;;;;;6.60;5.03;;;13.10;99.90;;;;;;5008840;28;20034;-73
2021/09/18 06:30:41;;;;;;;5.93;4.90;;;13.00;99.90;;;;;;5002600;28;20173;-74
2021/09/18 06:33:06;;;;;;;7.65;5.20;;;13.00;99.90;;;;;;5010482;28;20109;-74
2021/09/18 06:35:32;;;;;;;5.25;4.75;;;12.90;99.90;;;;;;5004058;28;20057;-74
2021/09/18 06:37:58;;;;;;;6.93;5.53;;;12.90;99.90;;;;;;5003784;28;20753;-73
2021/09/18 06:40:25;;;;;;;6.32;5.72;;;13.00;99.90;;;;;;5010268;28;20121;-74
2021/09/18 06:42:51;;;;;;;7.78;5.13;;;12.90;99.90;;;;;;5008664;28;20034;-73
2021/09/18 06:45:17;;;;;;;8.27;5.00;;;12.90;99.90;;;;;;5001491;28;20022;-74
2021/09/18 06:47:43;;;;;;;6.55;4.85;;;12.70;99.90;;;;;;5010158;28;20034;-74
2021/09/18 06:50:09;;;;;;;7.07;5.03;;;12.70;99.90;;;;;;5001677;28;20030;-74
2021/09/18 06:52:35;;;;;;;8.65;5.05;;;12.70;99.90;;;;;;5004177;28;20110;-74
2021/09/18 06:55:01;;;;;;;5.80;4.43;;;12.70;99.90;;;;;;4994843;28;20574;-73
2021/09/18 06:57:26;;;;;;;5.63;4.68;;;12.70;99.90;;;;;;4999090;28;20066;-73
2021/09/18 06:59:52;;;;;;;6.38;4.63;;;12.70;99.90;;;;;;4997623;28;20025;-73
2021/09/18 07:02:20;;;;;;;5.05;4.35;;;12.80;99.90;;;;;;4993140;28;20042;-73
2021/09/18 07:04:46;;;;;;;6.40;4.55;;;12.90;99.90;;;;;;5004151;28;20026;-73
2021/09/18 07:07:12;;;;;;;5.82;4.45;;;12.90;99.90;;;;;;5005982;28;20038;-74
2021/09/18 07:09:38;;;;;;;5.50;3.42;;;12.90;99.90;;;;;;4999352;28;20072;-74
2021/09/18 07:12:04;;;;;;;4.40;3.70;;;12.90;99.90;;;;;;5009340;28;20060;-74
2021/09/18 07:14:30;;;;;;;4.22;3.25;;;13.00;99.90;;;;;;4998072;28;20038;-74
2021/09/18 07:16:55;;;;;;;6.28;3.90;;;13.10;99.90;;;;;;4996940;28;20041;-74
2021/09/18 07:19:21;;;;;;;4.57;3.00;;;13.20;99.90;;;;;;5005578;28;20076;-74
2021/09/18 07:21:47;;;;;;;3.30;3.00;;;13.10;99.90;;;;;;5003382;28;20039;-73
2021/09/18 07:24:12;;;;;;;3.78;3.25;;;13.00;99.90;;;;;;4997940;28;20033;-72
2021/09/18 07:26:38;;;;;;;5.30;3.65;;;12.90;99.90;;;;;;4999472;28;20026;-74
2021/09/18 07:29:05;;;;;;;7.68;2.80;;;12.80;99.90;;;;;;4995640;28;20072;-76
2021/09/18 07:31:31;;;;;;;4.63;3.00;;;12.80;99.90;;;;;;5004024;28;20085;-72
2021/09/18 07:33:56;;;;;;;7.65;3.88;;;12.80;99.90;;;;;;4998319;28;20048;-74
2021/09/18 07:36:22;;;;;;;9.98;3.75;;;12.90;99.90;;;;;;4995320;28;20030;-73
2021/09/18 07:38:48;;;;;;;4.55;3.75;;;12.80;99.90;;;;;;4996816;28;20023;-73
2021/09/18 07:41:15;;;;;;;4.68;4.15;;;12.80;99.90;;;;;;4991882;28;20044;-74
2021/09/18 07:43:44;;;;;;;5.97;4.38;;;12.90;99.90;;;;;;5004907;28;20065;-73
2021/09/18 07:46:10;;;;;;;5.57;3.80;;;12.90;99.90;;;;;;4994393;28;20033;-73
2021/09/18 07:48:36;;;;;;;7.03;4.05;;;13.00;99.90;;;;;;5002790;28;20105;-74
2021/09/18 07:51:02;;;;;;;4.55;3.55;;;12.90;99.90;;;;;;4999179;28;20574;-73
2021/09/18 07:53:28;;;;;;;5.55;4.30;;;13.00;99.90;;;;;;4995044;28;20031;-74
2021/09/18 07:55:54;;;;;;;4.95;3.95;;;13.00;99.90;;;;;;5003706;28;20030;-72
2021/09/18 07:58:20;;;;;;;4.80;3.22;;;13.10;99.90;;;;;;5008242;28;20030;-73
2021/09/18 08:00:46;;;;;;;8.93;4.80;;;13.00;99.90;;;;;;5010312;28;20018;-74
2021/09/18 08:03:14;;;;;;;5.93;4.10;;;13.10;99.90;;;;;;5011727;28;20173;-77
2021/09/18 08:05:40;;;;;;;5.63;4.50;;;13.00;99.90;;;;;;5009309;28;20026;-73
2021/09/18 08:08:06;;;;;;;5.50;4.97;;;13.00;99.90;;;;;;4998247;28;20025;-73
2021/09/18 08:10:34;;;;;;;5.07;4.53;;;12.90;99.90;;;;;;4997472;28;20134;-74
2021/09/18 08:13:00;;;;;;;4.75;3.95;;;12.80;99.90;;;;;;5004525;28;20059;-74
2021/09/18 08:15:26;;;;;;;5.82;4.60;;;12.80;99.90;;;;;;5008655;28;20026;-74
2021/09/18 08:17:53;;;;;;;6.07;4.88;;;12.70;99.90;;;;;;5002378;28;20400;-75
2021/09/18 08:20:20;;;;;;;6.90;5.40;;;12.70;99.90;;;;;;5004366;28;20029;-74
2021/09/18 08:22:47;;;;;;;7.63;5.18;;;12.70;99.90;;;;;;5005639;28;20038;-74
2021/09/18 08:25:13;;;;;;;6.38;5.22;;;12.70;99.90;;;;;;5005631;28;20029;-74
2021/09/18 08:27:39;;;;;;;6.22;4.68;;;12.70;99.90;;;;;;5003131;28;20030;-74
2021/09/18 08:30:06;;;;;;;4.90;4.00;;;12.80;99.90;;;;;;5004866;28;20036;-74
2021/09/18 08:32:32;;;;;;;5.47;4.15;;;12.80;99.90;;;;;;5005339;28;20028;-75
2021/09/18 08:34:58;;;;;;;4.40;3.63;;;12.80;99.90;;;;;;5004330;28;20022;-74
2021/09/18 08:37:24;;;;;;;7.35;3.95;;;12.80;99.90;;;;;;5003977;28;20522;-74
2021/09/18 08:39:52;;;;;;;4.45;3.92;;;12.80;99.90;;;;;;5000491;28;20484;-74
2021/09/18 08:42:17;;;;;;;5.78;4.60;;;12.80;99.90;;;;;;5005203;28;20416;-74
2021/09/18 08:44:43;;;;;;;6.50;5.68;;;12.70;99.90;;;;;;5002567;28;20037;-74
2021/09/18 08:47:11;;;;;;;8.48;6.07;;;12.70;99.90;;;;;;4997685;28;20124;-74
2021/09/18 08:49:37;;;;;;;7.68;6.88;;;12.60;99.90;;;;;;4999082;28;20386;-75
2021/09/18 08:52:06;;;;;;;10.77;7.78;;;12.50;99.90;;;;;;5000959;28;20130;-74
2021/09/18 08:54:32;;;;;;;8.77;7.75;;;12.50;99.90;;;;;;5001045;28;20037;-74
2021/09/18 08:56:58;;;;;;;7.07;5.78;;;12.30;99.90;;;;;;5003854;28;20049;-74
2021/09/18 08:59:24;;;;;;;5.32;4.78;;;12.30;99.90;;;;;;5000805;28;20033;-74
2021/09/18 09:02:09;;;;;;;5.47;4.18;;;12.30;99.90;;;;;;5001085;28;20049;-75
2021/09/18 09:04:35;;;;;;;5.22;3.60;;;12.20;99.90;;;;;;5001127;28;20040;-74
2021/09/18 09:07:02;;;;;;;5.72;4.18;;;12.30;99.90;;;;;;5003817;28;20018;-74
2021/09/18 09:10:05;;;;;;;6.90;4.35;;;12.40;99.90;;;;;;5006486;28;20160;-75
2021/09/18 09:12:36;;;;;;;6.82;4.95;;;12.50;99.90;;;;;;5009601;28;20045;-75
2021/09/18 09:15:07;;;;;;;5.68;5.10;;;12.40;99.90;;;;;;5002821;28;20026;-74
2021/09/18 09:17:36;;;;;;;5.75;4.18;;;12.40;99.90;;;;;;5000688;28;20026;-74
2021/09/18 09:20:03;;;;;;;5.53;3.70;;;12.40;99.90;;;;;;5003427;28;20033;-74
2021/09/18 09:22:46;;;;;;;5.60;4.00;;;12.40;99.90;;;;;;5006228;28;20054;-74
2021/09/18 09:25:24;;;;;;;6.13;4.22;;;12.20;99.90;;;;;;5021954;28;20402;-75
2021/09/18 09:27:50;;;;;;;4.97;3.72;;;12.20;99.90;;;;;;5020034;28;20029;-74
2021/09/18 09:30:29;;;;;;;7.57;3.92;;;12.20;99.90;;;;;;5020867;28;20059;-76
2021/09/18 09:33:03;;;;;;;5.03;4.32;;;12.10;99.90;;;;;;5054235;28;20052;-76
2021/09/18 09:35:29;;;;;;;8.48;4.45;;;12.00;99.90;;;;;;5023008;28;20029;-76
2021/09/18 09:37:56;;;;;;;11.50;4.50;;;12.00;99.90;;;;;;5053756;28;20647;-76
2021/09/18 09:40:38;;;;;;;5.57;4.00;;;12.00;99.90;;;;;;5030725;28;20028;-75
2021/09/18 09:43:05;;;;;;;8.88;3.90;;;12.00;99.90;;;;;;5032433;28;20046;-75
2021/09/18 09:45:31;;;;;;;5.65;4.25;;;12.10;99.90;;;;;;5028455;28;20375;-76
2021/09/18 09:48:08;;;;;;;6.60;4.03;;;12.10;99.90;;;;;;5024449;28;20108;-76
2021/09/18 09:50:35;;;;;;;3.67;3.20;;;12.10;99.90;;;;;;5052775;28;20884;-76
2021/09/18 09:53:01;;;;;;;6.15;3.33;;;12.20;99.90;;;;;;5025426;28;20022;-75
2021/09/18 09:55:28;;;;;;;4.72;3.05;;;12.10;99.90;;;;;;5025648;28;20080;-75
2021/09/18 09:58:01;;;;;;;4.75;3.20;;;12.10;99.90;;;;;;5026423;28;20026;-75
2021/09/18 10:00:39;;;;;;;5.10;2.63;;;12.20;99.90;;;;;;5029586;28;20041;-75
2021/09/18 10:03:05;;;;;;;4.15;2.83;;;12.30;99.90;;;;;;5028489;28;20092;-75
2021/09/18 10:05:31;;;;;;;3.38;2.42;;;12.40;99.90;;;;;;5026419;28;20032;-75
2021/09/18 10:07:59;;;;;;;3.97;2.35;;;12.50;99.90;;;;;;5025615;28;20121;-75
2021/09/18 10:10:26;;;;;;;3.13;2.40;;;12.50;99.90;;;;;;5027622;28;20026;-75
2021/09/18 10:12:53;;;;;;;4.32;2.40;;;12.50;99.90;;;;;;5025480;28;20029;-75
2021/09/18 10:15:19;;;;;;;4.90;2.75;;;12.40;99.90;;;;;;5028501;28;20022;-75
2021/09/18 10:17:47;;;;;;;2.38;1.85;;;12.40;99.90;;;;;;5026380;28;20040;-75
2021/09/18 10:23:19;;;;;;;2.80;1.90;;;12.40;99.90;;;;;;4968564;28;20101;-75
2021/09/18 10:25:51;;;;;;;4.22;2.33;;;12.30;99.90;;;;;;4969682;28;20070;-75
2021/09/18 10:28:22;;;;;;;2.88;2.20;;;12.30;99.90;;;;;;4968730;28;20118;-75
2021/09/18 10:30:51;;;;;;;;;;;12.10;99.90;;;;;;4970588;28;20030;-74
2021/09/18 10:33:27;;;;;;;3.53;2.50;;;12.00;99.90;;;;;;4960570;28;19918;-75
2021/09/18 10:35:57;;;;;;;5.10;2.40;;;12.00;99.90;;;;;;4969026;28;20031;-76
2021/09/18 10:38:25;;;;;;;5.32;2.80;;;12.10;99.90;;;;;;4968198;28;20497;-75
2021/09/18 10:41:17;;;;;;;3.95;2.58;;;12.00;99.90;;;;;;4969164;28;20039;-76
2021/09/18 10:43:51;;;;;;;6.60;3.50;;;12.00;99.90;;;;;;4961995;28;20053;-75
2021/09/18 10:46:44;;;;;;;4.07;3.10;;;12.00;99.90;;;;;;4967823;28;20089;-75
2021/09/18 10:49:34;;;;;;;3.75;2.55;;;11.90;99.90;;;;;;4968263;28;20027;-75
2021/09/18 10:52:23;;;;;;;4.80;2.97;;;12.00;99.90;;;;;;4955143;28;20031;-74
2021/09/18 10:55:10;;;;;;;4.32;2.47;;;12.00;99.90;;;;;;4966147;28;20046;-75
2021/09/18 10:57:39;;;;;;;2.42;2.00;;;12.00;99.90;;;;;;4968380;28;20031;-74
2021/09/18 11:00:09;;;;;;;2.35;1.80;;;12.00;99.90;;;;;;5000177;28;20037;-75
2021/09/18 11:02:35;;;;;;;4.35;1.40;;;12.00;99.90;;;;;;5027057;28;20075;-75
2021/09/18 11:05:02;;;;;;;2.22;1.60;;;12.00;99.90;;;;;;5025620;28;20026;-75
2021/09/18 11:07:40;;;;;;;3.13;1.35;;;12.00;99.90;;;;;;5024748;28;20426;-74
2021/09/18 11:10:28;;;;;;;2.10;1.50;;;12.00;99.90;;;;;;5028085;28;20039;-74
2021/09/18 11:13:09;;;;;;;3.85;1.48;;;11.90;99.90;;;;;;5022219;28;20053;-74
2021/09/18 11:15:39;;;;;;;6.70;2.00;;;11.90;99.90;;;;;;5028927;28;20072;-75
2021/09/18 11:18:27;;;;;;;3.20;1.60;;;11.90;99.90;;;;;;5028630;28;20105;-74
2021/09/18 11:21:19;;;;;;;3.45;1.40;;;11.90;99.90;;;;;;5017142;28;20037;-75
2021/09/18 11:24:02;;;;;;;5.13;1.90;;;11.90;99.90;;;;;;5021884;28;20115;-75
2021/09/18 11:26:45;;;;;;;1.17;0.93;;;11.90;99.90;;;;;;5023902;28;20029;-75
2021/09/18 11:29:19;;;;;;;2.05;1.15;;;11.90;99.90;;;;;;5024759;28;20032;-75
2021/09/18 11:32:06;;;;;;;1.58;1.00;;;12.10;99.90;;;;;;5026754;28;20033;-75
2021/09/18 11:34:36;;;;;;;1.27;0.85;;;12.20;99.90;;;;;;5025330;28;20037;-75
2021/09/18 11:37:04;;;;;;;0.88;0.60;;;12.30;99.90;;;;;;5003029;28;20043;-75
2021/09/18 11:39:46;;;;;;;1.60;0.95;;;12.30;99.90;;;;;;5007233;28;20061;-75
2021/09/18 11:42:17;;;;;;;2.42;1.00;;;12.30;99.90;;;;;;5007144;28;20033;-75
2021/09/18 11:44:47;;;;;;;2.33;0.90;;;12.20;99.90;;;;;;5004640;28;20030;-74
2021/09/18 11:47:19;;;;;;;;;;;12.00;99.90;;;;;;5008151;28;20072;-74
2021/09/18 11:49:45;;;;;;;4.50;1.30;;;12.00;99.90;;;;;;5004177;28;20675;-75
2021/09/18 11:52:11;;;;;;;2.35;1.10;;;11.90;99.90;;;;;;5008254;28;20096;-75
2021/09/18 11:54:36;;;;;;;1.27;0.90;;;11.90;99.90;;;;;;5010604;28;20557;-75
2021/09/18 11:57:17;;;;;;;2.13;1.20;;;11.90;99.90;;;;;;5010478;28;20037;-75
2021/09/18 11:59:44;;;;;;;2.40;1.23;;;11.90;99.90;;;;;;5008162;28;20036;-75
2021/09/18 12:02:10;;;;;;;1.48;1.00;;;11.90;99.90;;;;;;5008967;28;20049;-75
2021/09/18 12:04:40;;;;;;;2.75;1.80;;;12.00;99.90;;;;;;5007830;28;20065;-75
2021/09/18 12:07:07;;;;;;;1.92;1.58;;;11.90;99.90;;;;;;5007896;28;20022;-74
2021/09/18 12:09:34;;;;;;;3.67;2.65;;;11.90;99.90;;;;;;5011389;28;20044;-74
2021/09/18 12:11:59;;;;;;;2.83;2.25;;;11.90;99.90;;;;;;5010430;28;20116;-75
2021/09/18 12:14:33;;;;;;;3.40;2.60;;;11.80;99.90;;;;;;5014100;28;20100;-75
2021/09/18 12:17:19;;;;;;;2.95;2.58;;;11.70;99.90;;;;;;5009083;28;20041;-75
2021/09/18 12:19:46;;;;;;;2.50;2.30;;;11.80;99.90;;;;;;5007860;28;20112;-75
2021/09/18 12:22:13;;;;;;;1.90;1.70;;;11.90;99.90;;;;;;5009166;28;20455;-75
2021/09/18 12:24:41;;;;;;;2.67;2.47;;;11.80;99.90;;;;;;5009301;28;20026;-75
2021/09/18 12:27:27;;;;;;;3.38;2.20;;;11.60;99.90;;;;;;5010906;28;20053;-74
2021/09/18 12:29:55;;;;;;;1.80;1.70;;;11.60;99.90;;;;;;5009531;28;20037;-74
2021/09/18 12:32:21;;;;;;;1.30;1.10;;;11.50;99.90;;;;;;5008678;28;20036;-74
2021/09/18 12:34:46;;;;;;;1.58;1.48;;;11.50;99.90;;;;;;5002739;28;20108;-74
2021/09/18 12:37:14;;;;;;;1.85;1.50;;;11.50;99.90;;;;;;5004760;28;20564;-74
2021/09/18 12:39:41;;;;;;;1.70;1.38;;;11.60;99.90;;;;;;5007477;28;20033;-74
2021/09/18 12:42:07;;;;;;;1.65;1.55;;;11.50;99.90;;;;;;5004566;28;20038;-74
2021/09/18 12:44:37;;;;;;;1.15;1.00;;;11.70;99.90;;;;;;5001066;28;20133;-74
2021/09/18 12:47:03;;;;;;;1.05;0.80;;;11.70;99.90;;;;;;5002579;28;20057;-74
2021/09/18 12:49:33;;;;;;;1.70;1.20;;;11.70;99.90;;;;;;5004707;28;20057;-74